sensor_id;sensor_type;location;lat;lon;timestamp;pressure;altitude;pressure_sealevel;temperature;humidity
23635;BME280;11994;51.038;16.974;2023-05-29T00:01:12;100373.58;;;13.38;56.99
23635;BME280;11994;51.038;16.974;2023-05-29T00:03:37;100369.89;;;13.33;57.23
23635;BME280;11994;51.038;16.974;2023-05-29T00:06:03;100372.39;;;13.26;57.34
23635;BME280;11994;51.038;16.974;2023-05-29T00:08:28;100368.67;;;13.21;57.75
23635;BME280;11994;51.038;16.974;2023-05-29T00:10:54;100367.56;;;13.17;57.80
23635;BME280;11994;51.038;16.974;2023-05-29T00:13:19;100369.97;;;13.14;57.96
23635;BME280;11994;51.038;16.974;2023-05-29T00:15:46;100371.06;;;13.13;58.28
23635;BME280;11994;51.038;16.974;2023-05-29T00:18:12;100369.85;;;13.12;58.46
23635;BME280;11994;51.038;16.974;2023-05-29T00:20:37;100366.04;;;13.10;58.36
23635;BME280;11994;51.038;16.974;2023-05-29T00:23:03;100368.84;;;13.10;58.53
23635;BME280;11994;51.038;16.974;2023-05-29T00:25:31;100369.91;;;13.10;58.39
23635;BME280;11994;51.038;16.974;2023-05-29T00:27:56;100369.67;;;13.06;58.42
23635;BME280;11994;51.038;16.974;2023-05-29T00:30:22;100368.98;;;13.00;58.49
23635;BME280;11994;51.038;16.974;2023-05-29T00:32:47;100369.84;;;12.89;58.62
23635;BME280;11994;51.038;16.974;2023-05-29T00:35:12;100374.21;;;12.83;58.78
23635;BME280;11994;51.038;16.974;2023-05-29T00:37:38;100372.31;;;12.82;58.99
23635;BME280;11994;51.038;16.974;2023-05-29T00:40:03;100369.64;;;12.78;59.02
23635;BME280;11994;51.038;16.974;2023-05-29T00:42:29;100371.63;;;12.76;59.27
23635;BME280;11994;51.038;16.974;2023-05-29T00:44:54;100367.77;;;12.76;59.43
23635;BME280;11994;51.038;16.974;2023-05-29T00:47:20;100372.07;;;12.73;59.21
23635;BME280;11994;51.038;16.974;2023-05-29T00:49:45;100368.60;;;12.66;59.20
23635;BME280;11994;51.038;16.974;2023-05-29T00:52:11;100365.43;;;12.60;59.22
23635;BME280;11994;51.038;16.974;2023-05-29T00:54:37;100365.46;;;12.59;59.31
23635;BME280;11994;51.038;16.974;2023-05-29T00:57:04;100363.52;;;12.54;59.51
23635;BME280;11994;51.038;16.974;2023-05-29T00:59:32;100363.08;;;12.51;59.47
23635;BME280;11994;51.038;16.974;2023-05-29T01:20:29;100366.75;;;13.04;59.25
23635;BME280;11994;51.038;16.974;2023-05-29T01:28:37;100368.63;;;12.53;59.94
23635;BME280;11994;51.038;16.974;2023-05-29T01:31:05;100371.46;;;12.40;59.97
23635;BME280;11994;51.038;16.974;2023-05-29T01:33:32;100369.04;;;12.33;60.40
23635;BME280;11994;51.038;16.974;2023-05-29T01:35:58;100365.91;;;12.26;60.46
23635;BME280;11994;51.038;16.974;2023-05-29T01:47:46;100353.13;;;11.94;61.37
23635;BME280;11994;51.038;16.974;2023-05-29T01:50:15;100352.79;;;11.81;61.55
23635;BME280;11994;51.038;16.974;2023-05-29T01:52:43;100354.06;;;11.72;61.77
23635;BME280;11994;51.038;16.974;2023-05-29T01:55:08;100351.87;;;11.69;62.02
23635;BME280;11994;51.038;16.974;2023-05-29T01:57:35;100352.63;;;11.67;62.25
23635;BME280;11994;51.038;16.974;2023-05-29T02:00:03;100348.86;;;11.55;62.44
23635;BME280;11994;51.038;16.974;2023-05-29T02:02:39;100351.34;;;11.46;62.74
23635;BME280;11994;51.038;16.974;2023-05-29T02:15:34;100350.29;;;11.32;63.36
23635;BME280;11994;51.038;16.974;2023-05-29T02:17:59;100353.05;;;11.27;63.66
23635;BME280;11994;51.038;16.974;2023-05-29T02:20:26;100350.66;;;11.24;63.85
23635;BME280;11994;51.038;16.974;2023-05-29T02:22:52;100347.52;;;11.24;64.48
23635;BME280;11994;51.038;16.974;2023-05-29T02:25:17;100348.21;;;11.24;64.60
23635;BME280;11994;51.038;16.974;2023-05-29T02:27:43;100346.79;;;11.25;64.49
23635;BME280;11994;51.038;16.974;2023-05-29T02:30:09;100349.35;;;11.21;64.48
23635;BME280;11994;51.038;16.974;2023-05-29T02:32:34;100346.08;;;11.12;64.58
23635;BME280;11994;51.038;16.974;2023-05-29T02:34:59;100348.30;;;11.06;64.84
23635;BME280;11994;51.038;16.974;2023-05-29T02:37:25;100350.21;;;11.06;65.17
23635;BME280;11994;51.038;16.974;2023-05-29T02:39:51;100350.15;;;11.10;65.38
23635;BME280;11994;51.038;16.974;2023-05-29T02:42:17;100353.72;;;11.14;65.30
23635;BME280;11994;51.038;16.974;2023-05-29T02:44:43;100346.64;;;11.10;65.18
23635;BME280;11994;51.038;16.974;2023-05-29T02:47:08;100344.58;;;11.00;65.28
23635;BME280;11994;51.038;16.974;2023-05-29T02:49:34;100345.11;;;10.93;65.46
23635;BME280;11994;51.038;16.974;2023-05-29T02:51:59;100342.18;;;10.91;65.61
23635;BME280;11994;51.038;16.974;2023-05-29T02:54:25;100341.81;;;10.91;65.88
23635;BME280;11994;51.038;16.974;2023-05-29T02:56:53;100343.11;;;10.96;66.18
23635;BME280;11994;51.038;16.974;2023-05-29T02:59:19;100342.91;;;10.97;66.13
23635;BME280;11994;51.038;16.974;2023-05-29T03:01:45;100334.20;;;10.95;66.12
23635;BME280;11994;51.038;16.974;2023-05-29T03:04:12;100335.45;;;10.94;66.36
23635;BME280;11994;51.038;16.974;2023-05-29T03:06:37;100340.15;;;10.95;66.49
23635;BME280;11994;51.038;16.974;2023-05-29T03:09:03;100343.11;;;10.95;66.50
23635;BME280;11994;51.038;16.974;2023-05-29T03:11:31;100345.79;;;10.94;66.53
23635;BME280;11994;51.038;16.974;2023-05-29T03:13:57;100348.35;;;10.89;66.55
23635;BME280;11994;51.038;16.974;2023-05-29T03:16:22;100351.16;;;10.81;66.71
23635;BME280;11994;51.038;16.974;2023-05-29T03:18:47;100351.41;;;10.77;66.82
23635;BME280;11994;51.038;16.974;2023-05-29T03:21:13;100352.48;;;10.76;67.14
23635;BME280;11994;51.038;16.974;2023-05-29T03:23:38;100354.35;;;10.79;67.49
23635;BME280;11994;51.038;16.974;2023-05-29T03:26:04;100359.35;;;10.82;67.51
23635;BME280;11994;51.038;16.974;2023-05-29T03:28:31;100363.11;;;10.85;67.70
23635;BME280;11994;51.038;16.974;2023-05-29T03:30:56;100364.34;;;10.86;67.82
23635;BME280;11994;51.038;16.974;2023-05-29T03:33:22;100363.33;;;10.84;67.87
23635;BME280;11994;51.038;16.974;2023-05-29T03:35:47;100365.80;;;10.83;67.89
23635;BME280;11994;51.038;16.974;2023-05-29T03:38:13;100367.88;;;10.83;67.95
23635;BME280;11994;51.038;16.974;2023-05-29T03:40:38;100374.89;;;10.83;68.11
23635;BME280;11994;51.038;16.974;2023-05-29T03:43:03;100373.38;;;10.81;68.39
23635;BME280;11994;51.038;16.974;2023-05-29T03:45:29;100377.66;;;10.77;68.56
23635;BME280;11994;51.038;16.974;2023-05-29T03:47:54;100376.09;;;10.77;68.57
23635;BME280;11994;51.038;16.974;2023-05-29T03:50:20;100378.33;;;10.78;68.52
23635;BME280;11994;51.038;16.974;2023-05-29T03:52:45;100380.88;;;10.82;68.71
23635;BME280;11994;51.038;16.974;2023-05-29T03:55:12;100383.10;;;10.84;68.90
23635;BME280;11994;51.038;16.974;2023-05-29T04:07:28;100384.96;;;10.87;68.74
23635;BME280;11994;51.038;16.974;2023-05-29T04:09:54;100387.90;;;10.89;68.82
23635;BME280;11994;51.038;16.974;2023-05-29T04:12:19;100385.91;;;10.91;68.93
23635;BME280;11994;51.038;16.974;2023-05-29T04:14:45;100385.15;;;10.94;69.01
23635;BME280;11994;51.038;16.974;2023-05-29T04:27:37;100388.88;;;11.16;68.89
23635;BME280;11994;51.038;16.974;2023-05-29T04:30:06;100390.94;;;11.24;69.01
23635;BME280;11994;51.038;16.974;2023-05-29T04:32:33;100399.16;;;11.32;68.93
23635;BME280;11994;51.038;16.974;2023-05-29T04:34:59;100399.54;;;11.38;68.76
23635;BME280;11994;51.038;16.974;2023-05-29T04:37:31;100403.45;;;11.44;68.70
23635;BME280;11994;51.038;16.974;2023-05-29T04:40:03;100411.23;;;11.47;68.51
23635;BME280;11994;51.038;16.974;2023-05-29T04:42:32;100414.27;;;11.52;68.39
23635;BME280;11994;51.038;16.974;2023-05-29T04:45:00;100417.84;;;11.56;68.38
23635;BME280;11994;51.038;16.974;2023-05-29T04:47:26;100416.55;;;11.60;68.38
23635;BME280;11994;51.038;16.974;2023-05-29T04:49:51;100416.95;;;11.65;68.66
23635;BME280;11994;51.038;16.974;2023-05-29T04:52:17;100419.42;;;11.72;68.38
23635;BME280;11994;51.038;16.974;2023-05-29T04:54:42;100417.56;;;11.75;68.22
23635;BME280;11994;51.038;16.974;2023-05-29T04:57:08;100418.48;;;11.81;68.19
23635;BME280;11994;51.038;16.974;2023-05-29T04:59:34;100413.25;;;11.87;68.36
23635;BME280;11994;51.038;16.974;2023-05-29T05:02:00;100411.41;;;11.91;68.37
23635;BME280;11994;51.038;16.974;2023-05-29T05:04:26;100412.15;;;11.95;68.45
23635;BME280;11994;51.038;16.974;2023-05-29T05:06:51;100415.53;;;11.99;68.41
23635;BME280;11994;51.038;16.974;2023-05-29T05:09:16;100416.96;;;12.05;68.21
23635;BME280;11994;51.038;16.974;2023-05-29T05:11:42;100418.20;;;12.12;68.42
23635;BME280;11994;51.038;16.974;2023-05-29T05:14:08;100420.66;;;12.18;68.30
23635;BME280;11994;51.038;16.974;2023-05-29T05:16:34;100420.33;;;12.24;68.21
23635;BME280;11994;51.038;16.974;2023-05-29T05:18:59;100423.48;;;12.31;68.33
23635;BME280;11994;51.038;16.974;2023-05-29T05:21:25;100425.35;;;12.38;68.24
23635;BME280;11994;51.038;16.974;2023-05-29T05:23:50;100424.16;;;12.50;68.10
23635;BME280;11994;51.038;16.974;2023-05-29T05:26:15;100416.98;;;12.62;67.89
23635;BME280;11994;51.038;16.974;2023-05-29T05:28:41;100426.45;;;12.74;67.75
23635;BME280;11994;51.038;16.974;2023-05-29T05:31:06;100428.81;;;12.84;67.68
23635;BME280;11994;51.038;16.974;2023-05-29T05:33:32;100430.27;;;12.94;67.60
23635;BME280;11994;51.038;16.974;2023-05-29T05:35:58;100429.29;;;13.04;67.52
23635;BME280;11994;51.038;16.974;2023-05-29T05:38:23;100427.81;;;13.12;67.40
23635;BME280;11994;51.038;16.974;2023-05-29T05:40:48;100423.69;;;13.20;67.49
23635;BME280;11994;51.038;16.974;2023-05-29T05:43:14;100422.84;;;13.31;67.27
23635;BME280;11994;51.038;16.974;2023-05-29T05:45:39;100424.77;;;13.42;66.97
23635;BME280;11994;51.038;16.974;2023-05-29T05:48:08;100422.79;;;13.54;66.83
23635;BME280;11994;51.038;16.974;2023-05-29T05:50:34;100424.05;;;13.69;66.34
23635;BME280;11994;51.038;16.974;2023-05-29T05:52:59;100421.02;;;13.86;65.69
23635;BME280;11994;51.038;16.974;2023-05-29T06:05:42;100420.12;;;14.53;64.30
23635;BME280;11994;51.038;16.974;2023-05-29T06:08:07;100423.40;;;14.69;64.51
23635;BME280;11994;51.038;16.974;2023-05-29T06:10:34;100424.59;;;14.84;64.08
23635;BME280;11994;51.038;16.974;2023-05-29T06:12:59;100423.10;;;14.95;63.59
23635;BME280;11994;51.038;16.974;2023-05-29T06:15:24;100423.23;;;15.10;63.43
23635;BME280;11994;51.038;16.974;2023-05-29T06:17:50;100421.92;;;15.21;62.86
23635;BME280;11994;51.038;16.974;2023-05-29T06:20:17;100424.88;;;15.36;62.90
23635;BME280;11994;51.038;16.974;2023-05-29T06:22:42;100425.88;;;15.51;62.37
23635;BME280;11994;51.038;16.974;2023-05-29T06:25:08;100427.34;;;15.62;61.53
23635;BME280;11994;51.038;16.974;2023-05-29T06:27:35;100428.70;;;15.72;61.14
23635;BME280;11994;51.038;16.974;2023-05-29T06:30:00;100428.16;;;15.81;61.16
23635;BME280;11994;51.038;16.974;2023-05-29T06:32:25;100430.38;;;15.91;61.02
23635;BME280;11994;51.038;16.974;2023-05-29T06:34:53;100435.25;;;16.06;60.86
23635;BME280;11994;51.038;16.974;2023-05-29T06:37:19;100434.66;;;16.19;60.66
23635;BME280;11994;51.038;16.974;2023-05-29T06:39:45;100433.97;;;16.35;60.70
23635;BME280;11994;51.038;16.974;2023-05-29T06:42:11;100438.79;;;16.46;60.17
23635;BME280;11994;51.038;16.974;2023-05-29T06:44:36;100445.20;;;16.57;60.39
23635;BME280;11994;51.038;16.974;2023-05-29T06:47:02;100444.98;;;16.66;59.71
23635;BME280;11994;51.038;16.974;2023-05-29T06:49:27;100448.33;;;16.78;59.67
23635;BME280;11994;51.038;16.974;2023-05-29T06:51:52;100449.27;;;16.96;59.27
23635;BME280;11994;51.038;16.974;2023-05-29T06:54:18;100449.46;;;17.10;58.44
23635;BME280;11994;51.038;16.974;2023-05-29T06:56:43;100451.13;;;17.16;57.80
23635;BME280;11994;51.038;16.974;2023-05-29T06:59:08;100449.50;;;17.21;58.14
23635;BME280;11994;51.038;16.974;2023-05-29T07:01:34;100446.71;;;17.31;58.47
23635;BME280;11994;51.038;16.974;2023-05-29T07:03:59;100446.46;;;17.41;57.97
23635;BME280;11994;51.038;16.974;2023-05-29T07:06:25;100448.82;;;17.47;57.88
23635;BME280;11994;51.038;16.974;2023-05-29T07:08:51;100447.89;;;17.51;57.70
23635;BME280;11994;51.038;16.974;2023-05-29T07:11:16;100450.54;;;17.56;57.64
23635;BME280;11994;51.038;16.974;2023-05-29T07:13:41;100449.66;;;17.63;57.70
23635;BME280;11994;51.038;16.974;2023-05-29T07:16:07;100450.82;;;17.71;57.38
23635;BME280;11994;51.038;16.974;2023-05-29T07:18:32;100449.17;;;17.80;57.39
23635;BME280;11994;51.038;16.974;2023-05-29T07:21:00;100449.58;;;17.85;56.92
23635;BME280;11994;51.038;16.974;2023-05-29T07:23:25;100448.67;;;17.89;57.15
23635;BME280;11994;51.038;16.974;2023-05-29T07:36:00;100453.48;;;18.45;56.38
23635;BME280;11994;51.038;16.974;2023-05-29T07:38:25;100453.15;;;18.58;55.74
23635;BME280;11994;51.038;16.974;2023-05-29T07:40:51;100452.48;;;18.67;55.03
23635;BME280;11994;51.038;16.974;2023-05-29T07:43:16;100453.63;;;18.75;54.73
23635;BME280;11994;51.038;16.974;2023-05-29T07:45:41;100455.11;;;18.84;54.52
23635;BME280;11994;51.038;16.974;2023-05-29T07:48:07;100451.55;;;18.91;54.54
23635;BME280;11994;51.038;16.974;2023-05-29T07:50:32;100450.65;;;18.98;53.66
23635;BME280;11994;51.038;16.974;2023-05-29T07:52:59;100455.38;;;19.09;53.66
23635;BME280;11994;51.038;16.974;2023-05-29T07:55:25;100458.52;;;19.23;53.31
23635;BME280;11994;51.038;16.974;2023-05-29T07:57:51;100455.91;;;19.31;52.28
23635;BME280;11994;51.038;16.974;2023-05-29T08:00:16;100459.02;;;19.36;51.59
23635;BME280;11994;51.038;16.974;2023-05-29T08:02:41;100458.06;;;19.44;51.63
23635;BME280;11994;51.038;16.974;2023-05-29T08:05:08;100462.80;;;19.57;49.92
23635;BME280;11994;51.038;16.974;2023-05-29T08:07:35;100457.23;;;19.67;49.43
23635;BME280;11994;51.038;16.974;2023-05-29T08:10:00;100462.77;;;19.76;49.18
23635;BME280;11994;51.038;16.974;2023-05-29T08:12:25;100462.29;;;19.87;48.13
23635;BME280;11994;51.038;16.974;2023-05-29T08:14:51;100457.63;;;19.91;48.31
23635;BME280;11994;51.038;16.974;2023-05-29T08:17:16;100458.52;;;19.98;48.62
23635;BME280;11994;51.038;16.974;2023-05-29T08:19:42;100463.09;;;20.08;48.78
23635;BME280;11994;51.038;16.974;2023-05-29T08:22:07;100467.09;;;20.18;47.91
23635;BME280;11994;51.038;16.974;2023-05-29T08:24:33;100466.19;;;20.24;46.83
23635;BME280;11994;51.038;16.974;2023-05-29T08:26:58;100463.99;;;20.37;46.08
23635;BME280;11994;51.038;16.974;2023-05-29T08:29:23;100462.80;;;20.48;45.24
23635;BME280;11994;51.038;16.974;2023-05-29T08:31:49;100456.05;;;20.56;44.74
23635;BME280;11994;51.038;16.974;2023-05-29T08:34:14;100458.52;;;20.66;44.96
23635;BME280;11994;51.038;16.974;2023-05-29T08:36:40;100461.80;;;20.76;45.13
23635;BME280;11994;51.038;16.974;2023-05-29T08:39:07;100459.07;;;20.85;44.57
23635;BME280;11994;51.038;16.974;2023-05-29T08:42:20;100461.64;;;20.93;44.38
23635;BME280;11994;51.038;16.974;2023-05-29T08:44:39;100464.05;;;20.92;43.69
23635;BME280;11994;51.038;16.974;2023-05-29T08:47:06;100466.89;;;20.89;43.93
23635;BME280;11994;51.038;16.974;2023-05-29T09:00:00;100460.18;;;21.08;43.80
23635;BME280;11994;51.038;16.974;2023-05-29T09:12:56;100453.20;;;21.11;42.91
23635;BME280;11994;51.038;16.974;2023-05-29T09:15:23;100452.48;;;21.22;42.80
23635;BME280;11994;51.038;16.974;2023-05-29T09:17:56;100454.30;;;21.33;41.94
23635;BME280;11994;51.038;16.974;2023-05-29T09:30:52;100458.73;;;21.64;40.69
23635;BME280;11994;51.038;16.974;2023-05-29T09:33:17;100461.85;;;21.68;40.50
23635;BME280;11994;51.038;16.974;2023-05-29T09:35:45;100464.89;;;21.76;40.42
23635;BME280;11994;51.038;16.974;2023-05-29T09:38:16;100465.44;;;21.81;39.76
23635;BME280;11994;51.038;16.974;2023-05-29T09:40:42;100464.13;;;21.90;39.35
23635;BME280;11994;51.038;16.974;2023-05-29T09:43:15;100462.45;;;21.94;38.88
23635;BME280;11994;51.038;16.974;2023-05-29T09:45:47;100461.86;;;21.92;39.13
23635;BME280;11994;51.038;16.974;2023-05-29T09:50:39;100454.45;;;21.85;39.03
23635;BME280;11994;51.038;16.974;2023-05-29T09:53:19;100454.67;;;21.93;39.02
23635;BME280;11994;51.038;16.974;2023-05-29T09:55:49;100456.42;;;21.96;37.92
23635;BME280;11994;51.038;16.974;2023-05-29T09:58:17;100458.05;;;21.96;38.45
23635;BME280;11994;51.038;16.974;2023-05-29T10:00:42;100458.52;;;21.97;38.51
23635;BME280;11994;51.038;16.974;2023-05-29T10:03:09;100449.92;;;22.00;38.84
23635;BME280;11994;51.038;16.974;2023-05-29T10:05:37;100449.24;;;22.02;38.82
23635;BME280;11994;51.038;16.974;2023-05-29T10:08:04;100454.94;;;22.07;37.72
23635;BME280;11994;51.038;16.974;2023-05-29T10:10:31;100455.94;;;22.16;37.58
23635;BME280;11994;51.038;16.974;2023-05-29T10:13:01;100447.62;;;22.23;38.18
23635;BME280;11994;51.038;16.974;2023-05-29T10:15:32;100449.91;;;22.23;37.90
23635;BME280;11994;51.038;16.974;2023-05-29T10:18:31;100444.09;;;22.25;38.24
23635;BME280;11994;51.038;16.974;2023-05-29T10:20:58;100443.49;;;22.29;38.53
23635;BME280;11994;51.038;16.974;2023-05-29T10:23:28;100441.96;;;22.28;38.74
23635;BME280;11994;51.038;16.974;2023-05-29T10:26:02;100443.58;;;22.32;39.35
23635;BME280;11994;51.038;16.974;2023-05-29T10:28:33;100443.59;;;22.40;38.36
23635;BME280;11994;51.038;16.974;2023-05-29T10:31:08;100446.84;;;22.45;37.93
23635;BME280;11994;51.038;16.974;2023-05-29T10:38:47;100441.38;;;22.39;37.96
23635;BME280;11994;51.038;16.974;2023-05-29T10:43:58;100438.52;;;22.39;36.84
23635;BME280;11994;51.038;16.974;2023-05-29T10:49:18;100434.28;;;22.49;38.42
23635;BME280;11994;51.038;16.974;2023-05-29T10:51:44;100430.74;;;22.51;38.46
23635;BME280;11994;51.038;16.974;2023-05-29T10:54:10;100429.63;;;22.52;38.15
23635;BME280;11994;51.038;16.974;2023-05-29T10:56:36;100427.61;;;22.45;37.95
23635;BME280;11994;51.038;16.974;2023-05-29T10:59:02;100431.52;;;22.45;37.78
23635;BME280;11994;51.038;16.974;2023-05-29T11:01:31;100434.51;;;22.53;38.36
23635;BME280;11994;51.038;16.974;2023-05-29T11:06:52;100426.20;;;22.65;37.15
23635;BME280;11994;51.038;16.974;2023-05-29T11:09:37;100430.66;;;22.65;36.93
23635;BME280;11994;51.038;16.974;2023-05-29T11:12:23;100423.77;;;22.64;37.29
23635;BME280;11994;51.038;16.974;2023-05-29T11:15:11;100427.47;;;22.72;37.87
23635;BME280;11994;51.038;16.974;2023-05-29T11:20:12;100414.02;;;22.81;37.73
23635;BME280;11994;51.038;16.974;2023-05-29T11:25:26;100405.38;;;22.72;36.30
23635;BME280;11994;51.038;16.974;2023-05-29T11:27:51;100407.83;;;22.65;36.96
23635;BME280;11994;51.038;16.974;2023-05-29T11:30:18;100414.13;;;22.69;36.83
23635;BME280;11994;51.038;16.974;2023-05-29T11:32:45;100416.39;;;22.67;35.97
23635;BME280;11994;51.038;16.974;2023-05-29T11:35:12;100421.41;;;22.62;35.79
23635;BME280;11994;51.038;16.974;2023-05-29T11:37:40;100419.77;;;22.55;36.61
23635;BME280;11994;51.038;16.974;2023-05-29T11:40:09;100421.84;;;22.63;36.38
23635;BME280;11994;51.038;16.974;2023-05-29T11:42:35;100423.24;;;22.72;36.68
23635;BME280;11994;51.038;16.974;2023-05-29T11:45:14;100421.45;;;22.79;36.83
23635;BME280;11994;51.038;16.974;2023-05-29T11:47:58;100420.95;;;22.89;36.85
23635;BME280;11994;51.038;16.974;2023-05-29T11:50:29;100421.10;;;22.96;36.55
23635;BME280;11994;51.038;16.974;2023-05-29T11:52:56;100420.19;;;23.02;36.12
23635;BME280;11994;51.038;16.974;2023-05-29T11:55:23;100416.79;;;23.09;36.04
23635;BME280;11994;51.038;16.974;2023-05-29T11:58:29;100411.06;;;23.19;36.26
23635;BME280;11994;51.038;16.974;2023-05-29T12:00:55;100412.02;;;23.26;36.06
23635;BME280;11994;51.038;16.974;2023-05-29T12:03:20;100412.06;;;23.25;36.26
23635;BME280;11994;51.038;16.974;2023-05-29T12:05:48;100399.52;;;23.21;35.85
23635;BME280;11994;51.038;16.974;2023-05-29T12:08:14;100400.44;;;23.21;36.10
23635;BME280;11994;51.038;16.974;2023-05-29T12:10:50;100397.73;;;23.31;35.80
23635;BME280;11994;51.038;16.974;2023-05-29T12:13:19;100391.33;;;23.45;35.91
23635;BME280;11994;51.038;16.974;2023-05-29T12:15:45;100388.69;;;23.51;36.03
23635;BME280;11994;51.038;16.974;2023-05-29T12:18:11;100388.28;;;23.57;36.15
23635;BME280;11994;51.038;16.974;2023-05-29T12:20:37;100394.36;;;23.68;36.49
23635;BME280;11994;51.038;16.974;2023-05-29T12:23:02;100394.24;;;23.75;36.36
23635;BME280;11994;51.038;16.974;2023-05-29T12:25:28;100393.09;;;23.74;36.06
23635;BME280;11994;51.038;16.974;2023-05-29T12:27:57;100391.91;;;23.63;35.75
23635;BME280;11994;51.038;16.974;2023-05-29T12:30:23;100386.92;;;23.49;35.58
23635;BME280;11994;51.038;16.974;2023-05-29T12:32:52;100384.80;;;23.37;36.07
23635;BME280;11994;51.038;16.974;2023-05-29T12:38:04;100377.98;;;23.37;35.93
23635;BME280;11994;51.038;16.974;2023-05-29T12:40:34;100376.72;;;23.49;35.81
23635;BME280;11994;51.038;16.974;2023-05-29T12:43:07;100370.93;;;23.55;35.24
23635;BME280;11994;51.038;16.974;2023-05-29T12:45:35;100364.15;;;23.53;35.41
23635;BME280;11994;51.038;16.974;2023-05-29T12:48:02;100366.84;;;23.52;35.24
23635;BME280;11994;51.038;16.974;2023-05-29T12:50:31;100366.72;;;23.56;34.98
23635;BME280;11994;51.038;16.974;2023-05-29T12:55:26;100367.04;;;23.75;34.71
23635;BME280;11994;51.038;16.974;2023-05-29T12:57:51;100369.23;;;23.75;34.22
23635;BME280;11994;51.038;16.974;2023-05-29T13:00:19;100366.94;;;23.70;35.64
23635;BME280;11994;51.038;16.974;2023-05-29T13:02:46;100361.99;;;23.78;35.29
23635;BME280;11994;51.038;16.974;2023-05-29T13:05:13;100369.80;;;23.82;34.56
23635;BME280;11994;51.038;16.974;2023-05-29T13:07:39;100369.95;;;23.87;34.95
23635;BME280;11994;51.038;16.974;2023-05-29T13:10:05;100368.14;;;23.87;34.91
23635;BME280;11994;51.038;16.974;2023-05-29T13:12:31;100362.17;;;23.76;34.91
23635;BME280;11994;51.038;16.974;2023-05-29T13:14:56;100356.31;;;23.64;34.99
23635;BME280;11994;51.038;16.974;2023-05-29T13:17:22;100358.73;;;23.62;35.39
23635;BME280;11994;51.038;16.974;2023-05-29T13:19:48;100354.99;;;23.67;34.78
23635;BME280;11994;51.038;16.974;2023-05-29T13:22:13;100353.48;;;23.68;35.12
23635;BME280;11994;51.038;16.974;2023-05-29T13:24:38;100350.05;;;23.73;35.07
23635;BME280;11994;51.038;16.974;2023-05-29T13:27:04;100348.35;;;23.74;34.50
23635;BME280;11994;51.038;16.974;2023-05-29T13:29:31;100348.33;;;23.70;34.38
23635;BME280;11994;51.038;16.974;2023-05-29T13:31:56;100344.52;;;23.76;35.17
23635;BME280;11994;51.038;16.974;2023-05-29T13:34:22;100343.23;;;23.88;35.17
23635;BME280;11994;51.038;16.974;2023-05-29T13:36:51;100339.14;;;24.02;34.41
23635;BME280;11994;51.038;16.974;2023-05-29T13:39:16;100330.70;;;24.07;34.53
23635;BME280;11994;51.038;16.974;2023-05-29T13:41:42;100334.64;;;24.09;34.16
23635;BME280;11994;51.038;16.974;2023-05-29T13:44:07;100335.09;;;24.08;34.43
23635;BME280;11994;51.038;16.974;2023-05-29T13:46:32;100329.27;;;24.12;34.63
23635;BME280;11994;51.038;16.974;2023-05-29T13:48:58;100327.73;;;24.13;34.30
23635;BME280;11994;51.038;16.974;2023-05-29T13:51:23;100326.10;;;24.15;34.58
23635;BME280;11994;51.038;16.974;2023-05-29T13:53:48;100320.05;;;24.22;34.44
23635;BME280;11994;51.038;16.974;2023-05-29T13:56:14;100323.55;;;24.20;34.03
23635;BME280;11994;51.038;16.974;2023-05-29T13:58:40;100320.59;;;24.22;34.49
23635;BME280;11994;51.038;16.974;2023-05-29T14:01:05;100322.64;;;24.25;34.28
23635;BME280;11994;51.038;16.974;2023-05-29T14:03:30;100323.13;;;24.26;34.52
23635;BME280;11994;51.038;16.974;2023-05-29T14:05:57;100318.08;;;24.24;34.11
23635;BME280;11994;51.038;16.974;2023-05-29T14:08:22;100316.98;;;24.17;34.38
23635;BME280;11994;51.038;16.974;2023-05-29T14:10:48;100314.96;;;24.16;34.13
23635;BME280;11994;51.038;16.974;2023-05-29T14:13:16;100310.64;;;24.14;34.24
23635;BME280;11994;51.038;16.974;2023-05-29T14:15:41;100311.06;;;24.11;34.49
23635;BME280;11994;51.038;16.974;2023-05-29T14:18:06;100312.52;;;24.06;34.28
23635;BME280;11994;51.038;16.974;2023-05-29T14:20:33;100314.80;;;23.98;33.93
23635;BME280;11994;51.038;16.974;2023-05-29T14:22:58;100312.05;;;23.89;34.03
23635;BME280;11994;51.038;16.974;2023-05-29T14:25:24;100312.70;;;23.85;33.99
23635;BME280;11994;51.038;16.974;2023-05-29T14:27:49;100308.33;;;23.84;34.01
23635;BME280;11994;51.038;16.974;2023-05-29T14:30:15;100306.66;;;23.82;34.03
23635;BME280;11994;51.038;16.974;2023-05-29T14:32:40;100305.44;;;23.82;34.32
23635;BME280;11994;51.038;16.974;2023-05-29T14:35:07;100306.20;;;23.83;34.17
23635;BME280;11994;51.038;16.974;2023-05-29T14:37:33;100302.38;;;23.99;34.26
23635;BME280;11994;51.038;16.974;2023-05-29T14:40:39;100303.90;;;24.18;33.94
23635;BME280;11994;51.038;16.974;2023-05-29T14:43:05;100303.90;;;24.29;33.46
23635;BME280;11994;51.038;16.974;2023-05-29T14:45:30;100304.83;;;24.31;33.77
23635;BME280;11994;51.038;16.974;2023-05-29T14:47:56;100301.56;;;24.38;33.98
23635;BME280;11994;51.038;16.974;2023-05-29T14:50:21;100298.80;;;24.46;33.97
23635;BME280;11994;51.038;16.974;2023-05-29T14:52:47;100301.52;;;24.48;33.97
23635;BME280;11994;51.038;16.974;2023-05-29T14:55:13;100303.25;;;24.42;33.69
23635;BME280;11994;51.038;16.974;2023-05-29T14:57:41;100306.60;;;24.20;33.91
23635;BME280;11994;51.038;16.974;2023-05-29T15:00:09;100305.11;;;23.98;34.27
23635;BME280;11994;51.038;16.974;2023-05-29T15:02:34;100308.96;;;23.80;34.29